sensor_id;sensor_type;location;lat;lon;timestamp;temperature;humidity
44431;DHT22;30135;47.866;-4.222;2022-12-18T00:01:33;3.90;88.30
44431;DHT22;30135;47.866;-4.222;2022-12-18T00:04:02;3.90;89.20
44431;DHT22;30135;47.866;-4.222;2022-12-18T00:06:29;3.90;88.60
44431;DHT22;30135;47.866;-4.222;2022-12-18T00:09:03;3.90;88.70
44431;DHT22;30135;47.866;-4.222;2022-12-18T00:11:30;4.00;89.00
44431;DHT22;30135;47.866;-4.222;2022-12-18T00:14:03;4.00;89.20
44431;DHT22;30135;47.866;-4.222;2022-12-18T00:16:29;4.00;89.50
44431;DHT22;30135;47.866;-4.222;2022-12-18T00:18:59;4.00;89.70
44431;DHT22;30135;47.866;-4.222;2022-12-18T00:21:26;4.10;89.70
44431;DHT22;30135;47.866;-4.222;2022-12-18T00:23:54;4.00;90.00
44431;DHT22;30135;47.866;-4.222;2022-12-18T00:26:23;4.10;90.10
44431;DHT22;30135;47.866;-4.222;2022-12-18T00:29:04;4.10;90.10
44431;DHT22;30135;47.866;-4.222;2022-12-18T00:31:36;4.20;90.30
44431;DHT22;30135;47.866;-4.222;2022-12-18T00:34:03;4.20;90.30
44431;DHT22;30135;47.866;-4.222;2022-12-18T00:36:32;4.20;90.30
44431;DHT22;30135;47.866;-4.222;2022-12-18T00:39:00;4.20;90.40
44431;DHT22;30135;47.866;-4.222;2022-12-18T00:41:28;4.20;90.70
44431;DHT22;30135;47.866;-4.222;2022-12-18T00:44:15;4.20;90.50
44431;DHT22;30135;47.866;-4.222;2022-12-18T00:46:43;4.20;90.50
44431;DHT22;30135;47.866;-4.222;2022-12-18T00:49:09;4.30;90.60
44431;DHT22;30135;47.866;-4.222;2022-12-18T00:51:35;4.30;90.60
44431;DHT22;30135;47.866;-4.222;2022-12-18T00:54:01;4.30;90.70
44431;DHT22;30135;47.866;-4.222;2022-12-18T00:56:28;4.30;90.80
44431;DHT22;30135;47.866;-4.222;2022-12-18T00:58:54;4.30;90.80
44431;DHT22;30135;47.866;-4.222;2022-12-18T01:01:20;4.30;90.90
44431;DHT22;30135;47.866;-4.222;2022-12-18T01:03:46;4.30;90.90
44431;DHT22;30135;47.866;-4.222;2022-12-18T01:06:13;4.30;91.10
44431;DHT22;30135;47.866;-4.222;2022-12-18T01:08:41;4.40;91.10
44431;DHT22;30135;47.866;-4.222;2022-12-18T01:11:19;4.40;91.20
44431;DHT22;30135;47.866;-4.222;2022-12-18T01:13:45;4.40;91.60
44431;DHT22;30135;47.866;-4.222;2022-12-18T01:16:16;4.40;91.20
44431;DHT22;30135;47.866;-4.222;2022-12-18T01:18:43;4.40;91.30
44431;DHT22;30135;47.866;-4.222;2022-12-18T01:21:11;4.40;91.30
44431;DHT22;30135;47.866;-4.222;2022-12-18T01:23:39;4.40;91.30
44431;DHT22;30135;47.866;-4.222;2022-12-18T01:26:08;4.50;91.40
44431;DHT22;30135;47.866;-4.222;2022-12-18T01:28:36;4.50;91.50
44431;DHT22;30135;47.866;-4.222;2022-12-18T01:33:44;4.50;91.50
44431;DHT22;30135;47.866;-4.222;2022-12-18T01:38:47;4.50;91.60
44431;DHT22;30135;47.866;-4.222;2022-12-18T01:41:16;4.50;91.50
44431;DHT22;30135;47.866;-4.222;2022-12-18T01:43:49;4.50;91.60
44431;DHT22;30135;47.866;-4.222;2022-12-18T01:46:25;4.50;91.70
44431;DHT22;30135;47.866;-4.222;2022-12-18T01:48:59;4.50;91.80
44431;DHT22;30135;47.866;-4.222;2022-12-18T01:51:30;4.60;91.90
44431;DHT22;30135;47.866;-4.222;2022-12-18T01:53:56;4.50;92.00
44431;DHT22;30135;47.866;-4.222;2022-12-18T01:56:23;4.60;92.10
44431;DHT22;30135;47.866;-4.222;2022-12-18T02:01:26;4.60;92.10
44431;DHT22;30135;47.866;-4.222;2022-12-18T02:03:53;4.60;92.10
44431;DHT22;30135;47.866;-4.222;2022-12-18T02:06:27;4.70;92.20
44431;DHT22;30135;47.866;-4.222;2022-12-18T02:14:38;4.70;92.30
44431;DHT22;30135;47.866;-4.222;2022-12-18T02:17:24;4.60;92.20
44431;DHT22;30135;47.866;-4.222;2022-12-18T02:23:19;4.70;92.40
44431;DHT22;30135;47.866;-4.222;2022-12-18T02:26:34;4.70;92.60
44431;DHT22;30135;47.866;-4.222;2022-12-18T02:29:04;4.70;92.70
44431;DHT22;30135;47.866;-4.222;2022-12-18T02:31:39;4.70;92.70
44431;DHT22;30135;47.866;-4.222;2022-12-18T02:34:09;4.80;92.80
44431;DHT22;30135;47.866;-4.222;2022-12-18T02:36:39;4.80;92.80
44431;DHT22;30135;47.866;-4.222;2022-12-18T02:39:09;4.80;92.80
44431;DHT22;30135;47.866;-4.222;2022-12-18T02:41:36;4.80;92.80
44431;DHT22;30135;47.866;-4.222;2022-12-18T02:44:09;4.80;92.90
44431;DHT22;30135;47.866;-4.222;2022-12-18T02:46:48;4.80;93.00
44431;DHT22;30135;47.866;-4.222;2022-12-18T02:49:31;4.90;93.10
44431;DHT22;30135;47.866;-4.222;2022-12-18T02:52:07;4.90;93.10
44431;DHT22;30135;47.866;-4.222;2022-12-18T02:55:08;4.90;93.00
44431;DHT22;30135;47.866;-4.222;2022-12-18T02:57:58;4.90;93.10
44431;DHT22;30135;47.866;-4.222;2022-12-18T03:01:04;5.00;93.20
44431;DHT22;30135;47.866;-4.222;2022-12-18T03:06:32;5.00;93.30
44431;DHT22;30135;47.866;-4.222;2022-12-18T03:09:14;5.00;93.40
44431;DHT22;30135;47.866;-4.222;2022-12-18T03:11:54;5.00;93.60
44431;DHT22;30135;47.866;-4.222;2022-12-18T03:14:42;5.10;93.60
44431;DHT22;30135;47.866;-4.222;2022-12-18T03:17:11;5.10;93.70
44431;DHT22;30135;47.866;-4.222;2022-12-18T03:19:41;5.10;93.70
44431;DHT22;30135;47.866;-4.222;2022-12-18T03:22:09;5.10;93.90
44431;DHT22;30135;47.866;-4.222;2022-12-18T03:24:38;5.20;94.00
44431;DHT22;30135;47.866;-4.222;2022-12-18T03:27:09;5.20;94.10
44431;DHT22;30135;47.866;-4.222;2022-12-18T03:29:55;5.20;94.10
44431;DHT22;30135;47.866;-4.222;2022-12-18T03:33:02;5.20;94.10
44431;DHT22;30135;47.866;-4.222;2022-12-18T03:36:06;5.20;94.30
44431;DHT22;30135;47.866;-4.222;2022-12-18T03:38:34;5.20;94.10
44431;DHT22;30135;47.866;-4.222;2022-12-18T03:41:25;5.20;94.20
44431;DHT22;30135;47.866;-4.222;2022-12-18T03:47:11;5.20;94.40
44431;DHT22;30135;47.866;-4.222;2022-12-18T03:52:30;5.30;94.70
44431;DHT22;30135;47.866;-4.222;2022-12-18T03:55:03;5.30;94.70
44431;DHT22;30135;47.866;-4.222;2022-12-18T03:57:32;5.30;94.70
44431;DHT22;30135;47.866;-4.222;2022-12-18T04:00:10;5.30;94.70
44431;DHT22;30135;47.866;-4.222;2022-12-18T04:02:41;5.30;95.00
44431;DHT22;30135;47.866;-4.222;2022-12-18T04:05:10;5.30;95.00
44431;DHT22;30135;47.866;-4.222;2022-12-18T04:07:38;5.30;95.20
44431;DHT22;30135;47.866;-4.222;2022-12-18T04:10:07;5.30;95.20
44431;DHT22;30135;47.866;-4.222;2022-12-18T04:12:33;5.30;95.20
44431;DHT22;30135;47.866;-4.222;2022-12-18T04:14:59;5.30;95.30
44431;DHT22;30135;47.866;-4.222;2022-12-18T04:17:25;5.30;95.40
44431;DHT22;30135;47.866;-4.222;2022-12-18T04:19:51;5.40;95.50
44431;DHT22;30135;47.866;-4.222;2022-12-18T04:22:17;5.40;95.60
44431;DHT22;30135;47.866;-4.222;2022-12-18T04:24:43;5.40;95.70
44431;DHT22;30135;47.866;-4.222;2022-12-18T04:27:09;5.50;95.70
44431;DHT22;30135;47.866;-4.222;2022-12-18T04:29:35;5.50;95.80
44431;DHT22;30135;47.866;-4.222;2022-12-18T04:32:01;5.50;95.80
44431;DHT22;30135;47.866;-4.222;2022-12-18T04:34:27;5.50;95.80
44431;DHT22;30135;47.866;-4.222;2022-12-18T04:36:53;5.50;95.90
44431;DHT22;30135;47.866;-4.222;2022-12-18T04:39:19;5.50;95.90
44431;DHT22;30135;47.866;-4.222;2022-12-18T04:41:45;5.50;96.00
44431;DHT22;30135;47.866;-4.222;2022-12-18T04:44:11;5.60;96.20
44431;DHT22;30135;47.866;-4.222;2022-12-18T04:46:37;5.60;96.30
44431;DHT22;30135;47.866;-4.222;2022-12-18T04:49:03;5.60;96.40
44431;DHT22;30135;47.866;-4.222;2022-12-18T04:51:29;5.60;96.50
44431;DHT22;30135;47.866;-4.222;2022-12-18T04:53:55;5.60;96.50
44431;DHT22;30135;47.866;-4.222;2022-12-18T04:56:21;5.60;97.00
44431;DHT22;30135;47.866;-4.222;2022-12-18T04:58:47;5.70;96.80
44431;DHT22;30135;47.866;-4.222;2022-12-18T05:01:15;5.70;96.80
44431;DHT22;30135;47.866;-4.222;2022-12-18T05:03:42;5.80;96.90
44431;DHT22;30135;47.866;-4.222;2022-12-18T05:06:09;5.80;97.00
44431;DHT22;30135;47.866;-4.222;2022-12-18T05:08:35;5.80;97.20
44431;DHT22;30135;47.866;-4.222;2022-12-18T05:11:07;5.80;97.20
44431;DHT22;30135;47.866;-4.222;2022-12-18T05:13:35;5.90;97.40
44431;DHT22;30135;47.866;-4.222;2022-12-18T05:16:01;5.90;97.40
44431;DHT22;30135;47.866;-4.222;2022-12-18T05:18:29;6.00;97.80
44431;DHT22;30135;47.866;-4.222;2022-12-18T05:20:55;6.00;97.90
44431;DHT22;30135;47.866;-4.222;2022-12-18T05:23:22;6.10;98.00
44431;DHT22;30135;47.866;-4.222;2022-12-18T05:26:00;6.20;98.10
44431;DHT22;30135;47.866;-4.222;2022-12-18T05:28:29;6.20;98.40
44431;DHT22;30135;47.866;-4.222;2022-12-18T05:30:59;6.30;98.40
44431;DHT22;30135;47.866;-4.222;2022-12-18T05:33:28;6.40;98.60
44431;DHT22;30135;47.866;-4.222;2022-12-18T05:35:58;6.40;98.50
44431;DHT22;30135;47.866;-4.222;2022-12-18T05:38:26;6.40;98.60
44431;DHT22;30135;47.866;-4.222;2022-12-18T05:40:53;6.50;98.70
44431;DHT22;30135;47.866;-4.222;2022-12-18T05:43:20;6.50;98.70
44431;DHT22;30135;47.866;-4.222;2022-12-18T05:45:48;6.60;98.70
44431;DHT22;30135;47.866;-4.222;2022-12-18T05:48:15;6.70;99.30
44431;DHT22;30135;47.866;-4.222;2022-12-18T05:50:43;6.80;99.90
44431;DHT22;30135;47.866;-4.222;2022-12-18T05:53:11;7.10;99.90
44431;DHT22;30135;47.866;-4.222;2022-12-18T05:55:39;7.40;99.90
44431;DHT22;30135;47.866;-4.222;2022-12-18T05:58:07;7.70;99.90
44431;DHT22;30135;47.866;-4.222;2022-12-18T06:00:36;7.90;99.90
44431;DHT22;30135;47.866;-4.222;2022-12-18T06:03:10;8.10;99.90
44431;DHT22;30135;47.866;-4.222;2022-12-18T06:05:38;8.30;99.90
44431;DHT22;30135;47.866;-4.222;2022-12-18T06:08:06;8.50;99.90
44431;DHT22;30135;47.866;-4.222;2022-12-18T06:10:33;8.60;99.90
44431;DHT22;30135;47.866;-4.222;2022-12-18T06:12:59;8.70;99.90
44431;DHT22;30135;47.866;-4.222;2022-12-18T06:15:25;8.90;99.90
44431;DHT22;30135;47.866;-4.222;2022-12-18T06:17:51;9.00;99.90
44431;DHT22;30135;47.866;-4.222;2022-12-18T06:20:17;9.10;99.90
44431;DHT22;30135;47.866;-4.222;2022-12-18T06:22:44;9.20;99.90
44431;DHT22;30135;47.866;-4.222;2022-12-18T06:25:10;9.40;99.90
44431;DHT22;30135;47.866;-4.222;2022-12-18T06:27:36;9.50;99.90
44431;DHT22;30135;47.866;-4.222;2022-12-18T06:30:03;9.50;99.90
44431;DHT22;30135;47.866;-4.222;2022-12-18T06:32:29;9.60;99.90
44431;DHT22;30135;47.866;-4.222;2022-12-18T06:34:55;9.60;99.90
44431;DHT22;30135;47.866;-4.222;2022-12-18T06:37:22;9.70;99.90
44431;DHT22;30135;47.866;-4.222;2022-12-18T06:39:52;9.70;99.90
44431;DHT22;30135;47.866;-4.222;2022-12-18T06:42:22;9.80;99.90
44431;DHT22;30135;47.866;-4.222;2022-12-18T06:44:48;9.80;99.90
44431;DHT22;30135;47.866;-4.222;2022-12-18T06:47:14;9.80;99.90
44431;DHT22;30135;47.866;-4.222;2022-12-18T06:49:40;9.90;99.90
44431;DHT22;30135;47.866;-4.222;2022-12-18T06:52:06;9.90;99.90
44431;DHT22;30135;47.866;-4.222;2022-12-18T06:54:32;10.00;99.90
44431;DHT22;30135;47.866;-4.222;2022-12-18T06:56:58;10.10;99.90
44431;DHT22;30135;47.866;-4.222;2022-12-18T06:59:24;10.10;99.90
44431;DHT22;30135;47.866;-4.222;2022-12-18T07:01:50;10.20;99.90
44431;DHT22;30135;47.866;-4.222;2022-12-18T07:04:18;10.20;99.90
44431;DHT22;30135;47.866;-4.222;2022-12-18T07:06:44;10.20;99.90
44431;DHT22;30135;47.866;-4.222;2022-12-18T07:09:10;10.20;99.90
44431;DHT22;30135;47.866;-4.222;2022-12-18T07:11:36;10.20;99.90
44431;DHT22;30135;47.866;-4.222;2022-12-18T07:14:02;10.30;99.90
44431;DHT22;30135;47.866;-4.222;2022-12-18T07:16:28;10.30;99.90
44431;DHT22;30135;47.866;-4.222;2022-12-18T07:18:55;10.30;99.90
44431;DHT22;30135;47.866;-4.222;2022-12-18T07:21:23;10.30;99.90
44431;DHT22;30135;47.866;-4.222;2022-12-18T07:23:49;10.40;99.90
44431;DHT22;30135;47.866;-4.222;2022-12-18T07:26:24;10.40;99.90
44431;DHT22;30135;47.866;-4.222;2022-12-18T07:29:07;10.40;99.90
44431;DHT22;30135;47.866;-4.222;2022-12-18T07:31:33;10.40;99.90
44431;DHT22;30135;47.866;-4.222;2022-12-18T07:33:59;10.40;99.90
44431;DHT22;30135;47.866;-4.222;2022-12-18T07:36:25;10.50;99.90
44431;DHT22;30135;47.866;-4.222;2022-12-18T07:38:51;10.50;99.90
44431;DHT22;30135;47.866;-4.222;2022-12-18T07:41:18;10.50;99.90
44431;DHT22;30135;47.866;-4.222;2022-12-18T07:43:45;10.50;99.90
44431;DHT22;30135;47.866;-4.222;2022-12-18T07:46:12;10.60;99.90
44431;DHT22;30135;47.866;-4.222;2022-12-18T07:48:40;10.60;99.90
44431;DHT22;30135;47.866;-4.222;2022-12-18T07:51:07;10.60;99.90
44431;DHT22;30135;47.866;-4.222;2022-12-18T07:53:34;10.70;99.90
44431;DHT22;30135;47.866;-4.222;2022-12-18T07:56:04;10.70;99.90
44431;DHT22;30135;47.866;-4.222;2022-12-18T07:58:32;10.70;99.90
44431;DHT22;30135;47.866;-4.222;2022-12-18T08:01:25;10.80;99.90
44431;DHT22;30135;47.866;-4.222;2022-12-18T08:03:51;10.90;99.90
44431;DHT22;30135;47.866;-4.222;2022-12-18T08:06:17;10.90;99.90
44431;DHT22;30135;47.866;-4.222;2022-12-18T08:08:43;10.90;99.90
44431;DHT22;30135;47.866;-4.222;2022-12-18T08:11:09;10.90;99.90
44431;DHT22;30135;47.866;-4.222;2022-12-18T08:13:35;11.00;99.90
44431;DHT22;30135;47.866;-4.222;2022-12-18T08:16:06;11.00;99.90
44431;DHT22;30135;47.866;-4.222;2022-12-18T08:18:34;11.00;99.90
44431;DHT22;30135;47.866;-4.222;2022-12-18T08:21:12;11.00;99.90
44431;DHT22;30135;47.866;-4.222;2022-12-18T08:23:38;11.10;99.90
44431;DHT22;30135;47.866;-4.222;2022-12-18T08:26:05;11.10;99.90
44431;DHT22;30135;47.866;-4.222;2022-12-18T08:28:34;11.10;99.90
44431;DHT22;30135;47.866;-4.222;2022-12-18T08:31:00;11.10;99.90
44431;DHT22;30135;47.866;-4.222;2022-12-18T08:33:26;11.20;99.90
44431;DHT22;30135;47.866;-4.222;2022-12-18T08:35:53;11.20;99.90
44431;DHT22;30135;47.866;-4.222;2022-12-18T08:38:18;11.20;99.90
44431;DHT22;30135;47.866;-4.222;2022-12-18T08:40:44;11.20;99.90
44431;DHT22;30135;47.866;-4.222;2022-12-18T08:43:11;11.20;99.90
44431;DHT22;30135;47.866;-4.222;2022-12-18T08:45:55;11.20;99.90
44431;DHT22;30135;47.866;-4.222;2022-12-18T08:48:21;11.20;99.90
44431;DHT22;30135;47.866;-4.222;2022-12-18T08:50:57;11.30;99.90
44431;DHT22;30135;47.866;-4.222;2022-12-18T08:53:25;11.30;99.90
44431;DHT22;30135;47.866;-4.222;2022-12-18T08:55:56;11.30;99.90
44431;DHT22;30135;47.866;-4.222;2022-12-18T08:58:22;11.30;99.90
44431;DHT22;30135;47.866;-4.222;2022-12-18T09:00:48;11.30;99.90
44431;DHT22;30135;47.866;-4.222;2022-12-18T09:03:16;11.30;99.90
44431;DHT22;30135;47.866;-4.222;2022-12-18T09:05:43;11.30;99.90
44431;DHT22;30135;47.866;-4.222;2022-12-18T09:08:11;11.30;99.90
44431;DHT22;30135;47.866;-4.222;2022-12-18T09:10:44;11.30;99.90
44431;DHT22;30135;47.866;-4.222;2022-12-18T09:13:12;11.30;99.90
44431;DHT22;30135;47.866;-4.222;2022-12-18T09:15:43;11.30;99.90
44431;DHT22;30135;47.866;-4.222;2022-12-18T09:18:15;11.40;99.90
44431;DHT22;30135;47.866;-4.222;2022-12-18T09:20:42;11.40;99.90
44431;DHT22;30135;47.866;-4.222;2022-12-18T09:23:08;11.40;99.90
44431;DHT22;30135;47.866;-4.222;2022-12-18T09:25:35;11.40;99.90
44431;DHT22;30135;47.866;-4.222;2022-12-18T09:28:05;11.40;99.90
44431;DHT22;30135;47.866;-4.222;2022-12-18T09:30:32;11.40;99.90
44431;DHT22;30135;47.866;-4.222;2022-12-18T09:33:00;11.40;99.90
44431;DHT22;30135;47.866;-4.222;2022-12-18T09:35:28;11.50;99.90
44431;DHT22;30135;47.866;-4.222;2022-12-18T09:37:55;11.50;99.90
44431;DHT22;30135;47.866;-4.222;2022-12-18T09:40:23;11.60;99.90
44431;DHT22;30135;47.866;-4.222;2022-12-18T09:42:59;11.50;99.90
44431;DHT22;30135;47.866;-4.222;2022-12-18T09:45:28;11.60;99.90
44431;DHT22;30135;47.866;-4.222;2022-12-18T09:47:57;11.60;99.90
44431;DHT22;30135;47.866;-4.222;2022-12-18T09:50:35;11.60;99.90
44431;DHT22;30135;47.866;-4.222;2022-12-18T09:53:09;11.60;99.90
44431;DHT22;30135;47.866;-4.222;2022-12-18T09:55:45;11.70;99.90
44431;DHT22;30135;47.866;-4.222;2022-12-18T10:00:54;11.60;99.90
44431;DHT22;30135;47.866;-4.222;2022-12-18T10:03:21;11.60;99.90
44431;DHT22;30135;47.866;-4.222;2022-12-18T10:06:11;11.70;99.90
44431;DHT22;30135;47.866;-4.222;2022-12-18T10:09:10;11.70;99.90
44431;DHT22;30135;47.866;-4.222;2022-12-18T10:15:01;11.60;99.90
44431;DHT22;30135;47.866;-4.222;2022-12-18T10:18:02;11.70;99.90
44431;DHT22;30135;47.866;-4.222;2022-12-18T10:20:46;11.70;99.90
44431;DHT22;30135;47.866;-4.222;2022-12-18T10:23:18;11.70;99.90
44431;DHT22;30135;47.866;-4.222;2022-12-18T10:25:55;11.70;99.90
44431;DHT22;30135;47.866;-4.222;2022-12-18T10:28:37;11.70;99.90
44431;DHT22;30135;47.866;-4.222;2022-12-18T10:31:06;11.70;99.90
44431;DHT22;30135;47.866;-4.222;2022-12-18T10:33:34;11.70;99.90
44431;DHT22;30135;47.866;-4.222;2022-12-18T10:36:00;11.70;99.90
44431;DHT22;30135;47.866;-4.222;2022-12-18T10:38:28;11.70;99.90
44431;DHT22;30135;47.866;-4.222;2022-12-18T10:41:08;11.70;99.90
44431;DHT22;30135;47.866;-4.222;2022-12-18T10:44:24;11.70;99.90
44431;DHT22;30135;47.866;-4.222;2022-12-18T10:47:04;11.70;99.90
44431;DHT22;30135;47.866;-4.222;2022-12-18T10:49:32;11.70;99.90
44431;DHT22;30135;47.866;-4.222;2022-12-18T10:52:17;11.70;99.90
44431;DHT22;30135;47.866;-4.222;2022-12-18T10:54:49;11.70;99.90
44431;DHT22;30135;47.866;-4.222;2022-12-18T10:57:38;11.70;99.90
44431;DHT22;30135;47.866;-4.222;2022-12-18T11:00:28;11.70;99.90
44431;DHT22;30135;47.866;-4.222;2022-12-18T11:02:55;11.80;99.90
44431;DHT22;30135;47.866;-4.222;2022-12-18T11:05:33;11.70;99.90
44431;DHT22;30135;47.866;-4.222;2022-12-18T11:08:00;11.80;99.90
44431;DHT22;30135;47.866;-4.222;2022-12-18T11:10:37;11.70;99.90
44431;DHT22;30135;47.866;-4.222;2022-12-18T11:13:21;11.70;99.90
44431;DHT22;30135;47.866;-4.222;2022-12-18T11:15:49;11.80;99.90
44431;DHT22;30135;47.866;-4.222;2022-12-18T11:20:59;11.80;99.90
44431;DHT22;30135;47.866;-4.222;2022-12-18T11:23:34;11.80;99.90
44431;DHT22;30135;47.866;-4.222;2022-12-18T11:26:04;11.80;99.90
44431;DHT22;30135;47.866;-4.222;2022-12-18T11:28:50;11.80;99.90
44431;DHT22;30135;47.866;-4.222;2022-12-18T11:31:22;11.90;99.90
44431;DHT22;30135;47.866;-4.222;2022-12-18T11:36:28;11.90;99.90
44431;DHT22;30135;47.866;-4.222;2022-12-18T11:38:59;11.90;99.90
44431;DHT22;30135;47.866;-4.222;2022-12-18T11:41:42;11.90;99.90
44431;DHT22;30135;47.866;-4.222;2022-12-18T11:44:42;11.90;99.90
44431;DHT22;30135;47.866;-4.222;2022-12-18T11:47:28;11.90;99.90
44431;DHT22;30135;47.866;-4.222;2022-12-18T11:50:01;11.90;99.90
44431;DHT22;30135;47.866;-4.222;2022-12-18T11:52:37;11.90;99.90
44431;DHT22;30135;47.866;-4.222;2022-12-18T12:01:29;12.00;99.90
44431;DHT22;30135;47.866;-4.222;2022-12-18T12:10:07;12.10;99.90
44431;DHT22;30135;47.866;-4.222;2022-12-18T12:12:59;12.00;99.90
44431;DHT22;30135;47.866;-4.222;2022-12-18T12:18:51;12.10;99.90
44431;DHT22;30135;47.866;-4.222;2022-12-18T12:21:33;12.10;99.90
44431;DHT22;30135;47.866;-4.222;2022-12-18T12:39:21;12.20;99.90
44431;DHT22;30135;47.866;-4.222;2022-12-18T12:41:50;12.20;99.90
44431;DHT22;30135;47.866;-4.222;2022-12-18T12:44:46;12.20;99.90
44431;DHT22;30135;47.866;-4.222;2022-12-18T12:47:30;12.20;99.90
44431;DHT22;30135;47.866;-4.222;2022-12-18T12:50:01;12.20;99.90
44431;DHT22;30135;47.866;-4.222;2022-12-18T12:52:39;12.30;99.90
44431;DHT22;30135;47.866;-4.222;2022-12-18T12:55:18;12.30;99.90
44431;DHT22;30135;47.866;-4.222;2022-12-18T13:07:12;12.30;99.90
44431;DHT22;30135;47.866;-4.222;2022-12-18T13:16:03;12.30;99.90
44431;DHT22;30135;47.866;-4.222;2022-12-18T13:18:33;12.30;99.90
44431;DHT22;30135;47.866;-4.222;2022-12-18T13:23:26;12.30;99.90
44431;DHT22;30135;47.866;-4.222;2022-12-18T13:26:00;12.30;99.90
44431;DHT22;30135;47.866;-4.222;2022-12-18T13:34:20;12.30;99.90
44431;DHT22;30135;47.866;-4.222;2022-12-18T13:36:47;12.30;99.90
44431;DHT22;30135;47.866;-4.222;2022-12-18T13:41:45;12.30;99.90
44431;DHT22;30135;47.866;-4.222;2022-12-18T13:47:04;12.30;99.90
44431;DHT22;30135;47.866;-4.222;2022-12-18T13:49:37;12.30;99.90
44431;DHT22;30135;47.866;-4.222;2022-12-18T13:54:56;12.30;99.90
44431;DHT22;30135;47.866;-4.222;2022-12-18T13:57:31;12.30;99.90
44431;DHT22;30135;47.866;-4.222;2022-12-18T14:02:49;12.30;99.90
44431;DHT22;30135;47.866;-4.222;2022-12-18T14:05:25;12.30;99.90
44431;DHT22;30135;47.866;-4.222;2022-12-18T14:08:05;12.30;99.90
44431;DHT22;30135;47.866;-4.222;2022-12-18T14:10:42;12.40;99.90
44431;DHT22;30135;47.866;-4.222;2022-12-18T14:13:11;12.30;99.90
44431;DHT22;30135;47.866;-4.222;2022-12-18T14:15:50;12.40;99.90
44431;DHT22;30135;47.866;-4.222;2022-12-18T14:18:25;12.40;99.90
44431;DHT22;30135;47.866;-4.222;2022-12-18T14:20:57;12.40;99.90
44431;DHT22;30135;47.866;-4.222;2022-12-18T14:23:37;12.40;99.90
44431;DHT22;30135;47.866;-4.222;2022-12-18T14:26:26;12.40;99.90
44431;DHT22;30135;47.866;-4.222;2022-12-18T14:29:17;12.40;99.90
44431;DHT22;30135;47.866;-4.222;2022-12-18T14:31:45;12.40;99.90
44431;DHT22;30135;47.866;-4.222;2022-12-18T14:34:16;12.40;99.90
44431;DHT22;30135;47.866;-4.222;2022-12-18T14:36:51;12.30;99.90
44431;DHT22;30135;47.866;-4.222;2022-12-18T14:39:18;12.30;99.90
44431;DHT22;30135;47.866;-4.222;2022-12-18T14:41:44;12.30;99.90
44431;DHT22;30135;47.866;-4.222;2022-12-18T14:44:12;12.30;99.90
44431;DHT22;30135;47.866;-4.222;2022-12-18T14:46:39;12.40;99.90
44431;DHT22;30135;47.866;-4.222;2022-12-18T14:49:19;12.40;99.90
44431;DHT22;30135;47.866;-4.222;2022-12-18T14:51:49;12.30;99.90
44431;DHT22;30135;47.866;-4.222;2022-12-18T14:54:19;12.30;99.90
44431;DHT22;30135;47.866;-4.222;2022-12-18T14:57:34;12.30;99.90
44431;DHT22;30135;47.866;-4.222;2022-12-18T14:59:47;12.30;99.90
44431;DHT22;30135;47.866;-4.222;2022-12-18T15:02:20;12.30;99.90
44431;DHT22;30135;47.866;-4.222;2022-12-18T15:04:53;12.40;99.90
44431;DHT22;30135;47.866;-4.222;2022-12-18T15:07:45;12.30;99.90
44431;DHT22;30135;47.866;-4.222;2022-12-18T15:10:29;12.30;99.90
44431;DHT22;30135;47.866;-4.222;2022-12-18T15:20:45;12.40;99.90
44431;DHT22;30135;47.866;-4.222;2022-12-18T15:25:48;12.40;99.90
44431;DHT22;30135;47.866;-4.222;2022-12-18T15:31:24;12.30;99.90
44431;DHT22;30135;47.866;-4.222;2022-12-18T15:36:23;12.40;99.90
44431;DHT22;30135;47.866;-4.222;2022-12-18T15:38:50;12.30;99.90
44431;DHT22;30135;47.866;-4.222;2022-12-18T15:41:20;12.40;99.90
44431;DHT22;30135;47.866;-4.222;2022-12-18T15:43:49;12.40;99.90
44431;DHT22;30135;47.866;-4.222;2022-12-18T15:46:21;12.40;99.90
44431;DHT22;30135;47.866;-4.222;2022-12-18T15:48:53;12.40;99.90
44431;DHT22;30135;47.866;-4.222;2022-12-18T15:51:24;12.40;99.90
44431;DHT22;30135;47.866;-4.222;2022-12-18T15:53:55;12.50;99.90
44431;DHT22;30135;47.866;-4.222;2022-12-18T15:56:22;12.50;99.90
44431;DHT22;30135;47.866;-4.222;2022-12-18T15:59:15;12.40;99.90
44431;DHT22;30135;47.866;-4.222;2022-12-18T16:01:44;12.50;99.90
44431;DHT22;30135;47.866;-4.222;2022-12-18T16:04:13;12.50;99.90
44431;DHT22;30135;47.866;-4.222;2022-12-18T16:06:41;12.50;99.90
44431;DHT22;30135;47.866;-4.222;2022-12-18T16:09:07;12.50;99.90
44431;DHT22;30135;47.866;-4.222;2022-12-18T16:11:36;12.50;99.90
44431;DHT22;30135;47.866;-4.222;2022-12-18T16:14:23;12.60;99.90
44431;DHT22;30135;47.866;-4.222;2022-12-18T16:16:54;12.60;99.90
44431;DHT22;30135;47.866;-4.222;2022-12-18T16:19:25;12.60;99.90
44431;DHT22;30135;47.866;-4.222;2022-12-18T16:21:54;12.60;99.90
44431;DHT22;30135;47.866;-4.222;2022-12-18T16:24:26;12.70;99.90
44431;DHT22;30135;47.866;-4.222;2022-12-18T16:26:55;12.70;99.90
44431;DHT22;30135;47.866;-4.222;2022-12-18T16:29:22;12.70;99.90
44431;DHT22;30135;47.866;-4.222;2022-12-18T16:31:55;12.70;99.90
44431;DHT22;30135;47.866;-4.222;2022-12-18T16:34:25;12.70;99.90
44431;DHT22;30135;47.866;-4.222;2022-12-18T16:36:56;12.70;99.90
44431;DHT22;30135;47.866;-4.222;2022-12-18T16:39:24;12.70;99.90
44431;DHT22;30135;47.866;-4.222;2022-12-18T16:41:50;12.80;99.90
44431;DHT22;30135;47.866;-4.222;2022-12-18T16:44:16;12.80;99.90
44431;DHT22;30135;47.866;-4.222;2022-12-18T16:46:43;12.80;99.90
44431;DHT22;30135;47.866;-4.222;2022-12-18T16:49:12;12.80;99.90
44431;DHT22;30135;47.866;-4.222;2022-12-18T16:51:43;12.80;99.90
44431;DHT22;30135;47.866;-4.222;2022-12-18T16:54:12;12.80;99.90
44431;DHT22;30135;47.866;-4.222;2022-12-18T16:56:41;12.80;99.90
44431;DHT22;30135;47.866;-4.222;2022-12-18T16:59:10;12.90;99.90
44431;DHT22;30135;47.866;-4.222;2022-12-18T17:01:41;12.90;99.90
44431;DHT22;30135;47.866;-4.222;2022-12-18T17:04:10;12.90;99.90
44431;DHT22;30135;47.866;-4.222;2022-12-18T17:06:42;12.90;99.90
44431;DHT22;30135;47.866;-4.222;2022-12-18T17:09:15;12.90;99.90
44431;DHT22;30135;47.866;-4.222;2022-12-18T17:11:46;12.90;99.90
44431;DHT22;30135;47.866;-4.222;2022-12-18T17:14:19;12.90;99.90
44431;DHT22;30135;47.866;-4.222;2022-12-18T17:16:52;12.90;99.90
44431;DHT22;30135;47.866;-4.222;2022-12-18T17:19:20;12.90;99.90
44431;DHT22;30135;47.866;-4.222;2022-12-18T17:21:49;12.90;99.90
44431;DHT22;30135;47.866;-4.222;2022-12-18T17:24:18;12.90;99.90
44431;DHT22;30135;47.866;-4.222;2022-12-18T17:26:48;12.90;99.90
44431;DHT22;30135;47.866;-4.222;2022-12-18T17:29:22;12.90;99.90
44431;DHT22;30135;47.866;-4.222;2022-12-18T17:31:53;13.00;99.90
44431;DHT22;30135;47.866;-4.222;2022-12-18T17:34:39;13.00;99.90
44431;DHT22;30135;47.866;-4.222;2022-12-18T17:37:08;13.00;99.90
44431;DHT22;30135;47.866;-4.222;2022-12-18T17:39:37;13.00;99.90
44431;DHT22;30135;47.866;-4.222;2022-12-18T17:42:05;13.00;99.90
44431;DHT22;30135;47.866;-4.222;2022-12-18T17:44:41;13.00;99.90
44431;DHT22;30135;47.866;-4.222;2022-12-18T17:47:10;13.00;99.90
44431;DHT22;30135;47.866;-4.222;2022-12-18T17:49:41;13.00;99.90